sensor_id;sensor_type;location;lat;lon;timestamp;P1;durP1;ratioP1;P2;durP2;ratioP2
48401;SDS011;34201;52.438;16.744;2022-10-04T00:02:20;0.10;;;0.10;;
48401;SDS011;34201;52.438;16.744;2022-10-04T00:04:55;0.10;;;0.10;;
48401;SDS011;34201;52.438;16.744;2022-10-04T00:07:30;0.20;;;0.20;;
48401;SDS011;34201;52.438;16.744;2022-10-04T00:10:25;0.10;;;0.10;;
48401;SDS011;34201;52.438;16.744;2022-10-04T00:12:59;0.10;;;0.10;;
48401;SDS011;34201;52.438;16.744;2022-10-04T00:18:04;0.10;;;0.10;;
48401;SDS011;34201;52.438;16.744;2022-10-04T00:25:51;0.10;;;0.10;;
48401;SDS011;34201;52.438;16.744;2022-10-04T00:30:43;0.10;;;0.10;;
48401;SDS011;34201;52.438;16.744;2022-10-04T00:33:08;0.13;;;0.13;;
48401;SDS011;34201;52.438;16.744;2022-10-04T00:38:15;0.20;;;0.20;;
48401;SDS011;34201;52.438;16.744;2022-10-04T00:40:56;0.10;;;0.10;;
48401;SDS011;34201;52.438;16.744;2022-10-04T00:43:36;0.20;;;0.20;;
48401;SDS011;34201;52.438;16.744;2022-10-04T00:46:10;0.15;;;0.15;;
48401;SDS011;34201;52.438;16.744;2022-10-04T00:56:52;0.10;;;0.10;;
48401;SDS011;34201;52.438;16.744;2022-10-04T01:04:54;0.20;;;0.20;;
48401;SDS011;34201;52.438;16.744;2022-10-04T01:07:27;0.10;;;0.10;;
48401;SDS011;34201;52.438;16.744;2022-10-04T01:10:10;0.10;;;0.10;;
48401;SDS011;34201;52.438;16.744;2022-10-04T01:12:44;0.10;;;0.10;;
48401;SDS011;34201;52.438;16.744;2022-10-04T01:20:51;0.20;;;0.20;;
48401;SDS011;34201;52.438;16.744;2022-10-04T01:29:00;0.10;;;0.10;;
48401;SDS011;34201;52.438;16.744;2022-10-04T01:31:30;0.20;;;0.20;;
48401;SDS011;34201;52.438;16.744;2022-10-04T01:33:57;0.20;;;0.20;;
48401;SDS011;34201;52.438;16.744;2022-10-04T01:36:24;0.13;;;0.13;;
48401;SDS011;34201;52.438;16.744;2022-10-04T01:38:51;0.10;;;0.10;;
48401;SDS011;34201;52.438;16.744;2022-10-04T01:41:18;0.10;;;0.10;;
48401;SDS011;34201;52.438;16.744;2022-10-04T01:43:53;0.10;;;0.10;;
48401;SDS011;34201;52.438;16.744;2022-10-04T01:46:30;0.10;;;0.10;;
48401;SDS011;34201;52.438;16.744;2022-10-04T01:49:02;0.10;;;0.10;;
48401;SDS011;34201;52.438;16.744;2022-10-04T01:51:36;0.13;;;0.13;;
48401;SDS011;34201;52.438;16.744;2022-10-04T01:54:12;0.10;;;0.10;;
48401;SDS011;34201;52.438;16.744;2022-10-04T01:59:27;0.10;;;0.10;;
48401;SDS011;34201;52.438;16.744;2022-10-04T02:05:00;0.10;;;0.10;;
48401;SDS011;34201;52.438;16.744;2022-10-04T02:07:30;0.10;;;0.10;;
48401;SDS011;34201;52.438;16.744;2022-10-04T02:10:01;0.10;;;0.10;;
48401;SDS011;34201;52.438;16.744;2022-10-04T02:12:30;0.10;;;0.10;;
48401;SDS011;34201;52.438;16.744;2022-10-04T02:14:59;0.10;;;0.10;;
48401;SDS011;34201;52.438;16.744;2022-10-04T02:17:30;0.10;;;0.10;;
48401;SDS011;34201;52.438;16.744;2022-10-04T02:19:58;0.17;;;0.17;;
48401;SDS011;34201;52.438;16.744;2022-10-04T02:22:25;0.20;;;0.20;;
48401;SDS011;34201;52.438;16.744;2022-10-04T02:24:52;0.10;;;0.10;;
48401;SDS011;34201;52.438;16.744;2022-10-04T02:27:19;0.10;;;0.10;;
48401;SDS011;34201;52.438;16.744;2022-10-04T02:29:49;0.30;;;0.30;;
48401;SDS011;34201;52.438;16.744;2022-10-04T02:32:15;0.10;;;0.10;;
48401;SDS011;34201;52.438;16.744;2022-10-04T02:34:59;0.10;;;0.10;;
48401;SDS011;34201;52.438;16.744;2022-10-04T02:37:25;0.10;;;0.10;;
48401;SDS011;34201;52.438;16.744;2022-10-04T02:39:57;0.10;;;0.10;;
48401;SDS011;34201;52.438;16.744;2022-10-04T02:45:19;0.10;;;0.10;;
48401;SDS011;34201;52.438;16.744;2022-10-04T02:56:33;0.15;;;0.15;;
48401;SDS011;34201;52.438;16.744;2022-10-04T02:59:01;0.20;;;0.20;;
48401;SDS011;34201;52.438;16.744;2022-10-04T03:04:11;0.15;;;0.15;;
48401;SDS011;34201;52.438;16.744;2022-10-04T03:06:39;0.20;;;0.20;;
48401;SDS011;34201;52.438;16.744;2022-10-04T03:09:07;0.13;;;0.13;;
48401;SDS011;34201;52.438;16.744;2022-10-04T03:11:34;0.20;;;0.20;;
48401;SDS011;34201;52.438;16.744;2022-10-04T03:14:03;0.20;;;0.20;;
48401;SDS011;34201;52.438;16.744;2022-10-04T03:19:01;0.20;;;0.20;;
48401;SDS011;34201;52.438;16.744;2022-10-04T03:21:27;0.20;;;0.20;;
48401;SDS011;34201;52.438;16.744;2022-10-04T03:23:55;0.13;;;0.13;;
48401;SDS011;34201;52.438;16.744;2022-10-04T03:26:38;0.20;;;0.20;;
48401;SDS011;34201;52.438;16.744;2022-10-04T03:29:08;0.20;;;0.20;;
48401;SDS011;34201;52.438;16.744;2022-10-04T03:31:39;0.15;;;0.15;;
48401;SDS011;34201;52.438;16.744;2022-10-04T03:34:14;0.20;;;0.20;;
48401;SDS011;34201;52.438;16.744;2022-10-04T03:36:44;0.20;;;0.20;;
48401;SDS011;34201;52.438;16.744;2022-10-04T03:39:16;0.10;;;0.10;;
48401;SDS011;34201;52.438;16.744;2022-10-04T03:41:50;0.20;;;0.20;;
48401;SDS011;34201;52.438;16.744;2022-10-04T03:44:17;0.20;;;0.20;;
48401;SDS011;34201;52.438;16.744;2022-10-04T03:46:43;0.20;;;0.20;;
48401;SDS011;34201;52.438;16.744;2022-10-04T03:49:11;0.20;;;0.20;;
48401;SDS011;34201;52.438;16.744;2022-10-04T03:51:43;0.20;;;0.20;;
48401;SDS011;34201;52.438;16.744;2022-10-04T03:54:14;0.20;;;0.20;;
48401;SDS011;34201;52.438;16.744;2022-10-04T03:56:42;0.20;;;0.20;;
48401;SDS011;34201;52.438;16.744;2022-10-04T03:59:15;0.10;;;0.10;;
48401;SDS011;34201;52.438;16.744;2022-10-04T04:04:42;0.20;;;0.20;;
48401;SDS011;34201;52.438;16.744;2022-10-04T04:07:37;0.20;;;0.20;;
48401;SDS011;34201;52.438;16.744;2022-10-04T04:10:15;0.20;;;0.20;;
48401;SDS011;34201;52.438;16.744;2022-10-04T04:12:45;0.20;;;0.20;;
48401;SDS011;34201;52.438;16.744;2022-10-04T04:15:29;0.20;;;0.20;;
48401;SDS011;34201;52.438;16.744;2022-10-04T04:18:01;0.25;;;0.25;;
48401;SDS011;34201;52.438;16.744;2022-10-04T04:25:24;0.10;;;0.10;;
48401;SDS011;34201;52.438;16.744;2022-10-04T04:27:58;0.10;;;0.10;;
48401;SDS011;34201;52.438;16.744;2022-10-04T04:30:27;0.10;;;0.10;;
48401;SDS011;34201;52.438;16.744;2022-10-04T04:32:55;0.10;;;0.10;;
48401;SDS011;34201;52.438;16.744;2022-10-04T04:35:29;0.10;;;0.10;;
48401;SDS011;34201;52.438;16.744;2022-10-04T04:40:27;0.10;;;0.10;;
48401;SDS011;34201;52.438;16.744;2022-10-04T04:42:53;0.20;;;0.20;;
48401;SDS011;34201;52.438;16.744;2022-10-04T04:45:23;0.10;;;0.10;;
48401;SDS011;34201;52.438;16.744;2022-10-04T04:47:53;0.20;;;0.20;;
48401;SDS011;34201;52.438;16.744;2022-10-04T04:50:22;0.20;;;0.20;;
48401;SDS011;34201;52.438;16.744;2022-10-04T04:52:53;0.10;;;0.10;;
48401;SDS011;34201;52.438;16.744;2022-10-04T04:55:25;0.20;;;0.20;;
48401;SDS011;34201;52.438;16.744;2022-10-04T04:57:54;0.10;;;0.10;;
48401;SDS011;34201;52.438;16.744;2022-10-04T05:00:22;0.20;;;0.20;;
48401;SDS011;34201;52.438;16.744;2022-10-04T05:02:53;0.10;;;0.10;;
48401;SDS011;34201;52.438;16.744;2022-10-04T05:05:23;0.10;;;0.10;;
48401;SDS011;34201;52.438;16.744;2022-10-04T05:10:35;0.10;;;0.10;;
48401;SDS011;34201;52.438;16.744;2022-10-04T05:13:02;0.10;;;0.10;;
48401;SDS011;34201;52.438;16.744;2022-10-04T05:15:32;0.20;;;0.20;;
48401;SDS011;34201;52.438;16.744;2022-10-04T05:18:00;0.20;;;0.20;;
48401;SDS011;34201;52.438;16.744;2022-10-04T05:20:27;0.10;;;0.10;;
48401;SDS011;34201;52.438;16.744;2022-10-04T05:22:54;0.20;;;0.20;;
48401;SDS011;34201;52.438;16.744;2022-10-04T05:25:27;0.10;;;0.10;;
48401;SDS011;34201;52.438;16.744;2022-10-04T05:27:57;0.10;;;0.10;;
48401;SDS011;34201;52.438;16.744;2022-10-04T05:33:13;0.10;;;0.10;;
48401;SDS011;34201;52.438;16.744;2022-10-04T05:38:58;0.10;;;0.10;;
48401;SDS011;34201;52.438;16.744;2022-10-04T05:44:35;0.13;;;0.13;;
48401;SDS011;34201;52.438;16.744;2022-10-04T05:47:04;0.10;;;0.10;;
48401;SDS011;34201;52.438;16.744;2022-10-04T05:49:33;0.10;;;0.10;;
48401;SDS011;34201;52.438;16.744;2022-10-04T05:52:26;0.10;;;0.10;;
48401;SDS011;34201;52.438;16.744;2022-10-04T06:00:21;0.10;;;0.10;;
48401;SDS011;34201;52.438;16.744;2022-10-04T06:06:38;0.00;;;0.00;;
48401;SDS011;34201;52.438;16.744;2022-10-04T06:15:01;0.10;;;0.10;;
48401;SDS011;34201;52.438;16.744;2022-10-04T06:17:42;0.10;;;0.10;;
48401;SDS011;34201;52.438;16.744;2022-10-04T06:23:32;0.13;;;0.13;;
48401;SDS011;34201;52.438;16.744;2022-10-04T06:26:11;0.10;;;0.10;;
48401;SDS011;34201;52.438;16.744;2022-10-04T06:28:46;0.10;;;0.10;;
48401;SDS011;34201;52.438;16.744;2022-10-04T06:34:04;0.10;;;0.10;;
48401;SDS011;34201;52.438;16.744;2022-10-04T06:51:02;0.10;;;0.10;;
48401;SDS011;34201;52.438;16.744;2022-10-04T07:02:00;0.10;;;0.10;;
48401;SDS011;34201;52.438;16.744;2022-10-04T07:04:37;0.10;;;0.10;;
48401;SDS011;34201;52.438;16.744;2022-10-04T07:07:11;0.10;;;0.10;;
48401;SDS011;34201;52.438;16.744;2022-10-04T07:10:02;0.10;;;0.10;;
48401;SDS011;34201;52.438;16.744;2022-10-04T07:12:41;0.10;;;0.10;;
48401;SDS011;34201;52.438;16.744;2022-10-04T07:15:23;0.10;;;0.10;;
48401;SDS011;34201;52.438;16.744;2022-10-04T07:17:52;0.10;;;0.10;;
48401;SDS011;34201;52.438;16.744;2022-10-04T07:20:21;0.00;;;0.00;;
48401;SDS011;34201;52.438;16.744;2022-10-04T07:22:59;0.00;;;0.00;;
48401;SDS011;34201;52.438;16.744;2022-10-04T07:25:33;0.10;;;0.10;;
48401;SDS011;34201;52.438;16.744;2022-10-04T07:30:54;0.10;;;0.10;;
48401;SDS011;34201;52.438;16.744;2022-10-04T07:33:27;0.00;;;0.00;;
48401;SDS011;34201;52.438;16.744;2022-10-04T07:36:05;0.00;;;0.00;;
48401;SDS011;34201;52.438;16.744;2022-10-04T07:38:46;0.10;;;0.10;;
48401;SDS011;34201;52.438;16.744;2022-10-04T07:41:42;0.00;;;0.00;;
48401;SDS011;34201;52.438;16.744;2022-10-04T07:44:32;0.00;;;0.00;;
48401;SDS011;34201;52.438;16.744;2022-10-04T07:47:02;0.10;;;0.10;;
48401;SDS011;34201;52.438;16.744;2022-10-04T07:49:44;0.00;;;0.00;;
48401;SDS011;34201;52.438;16.744;2022-10-04T07:54:50;0.00;;;0.00;;
48401;SDS011;34201;52.438;16.744;2022-10-04T07:57:42;0.00;;;0.00;;
48401;SDS011;34201;52.438;16.744;2022-10-04T08:05:46;0.10;;;0.10;;
48401;SDS011;34201;52.438;16.744;2022-10-04T08:13:58;0.00;;;0.00;;
48401;SDS011;34201;52.438;16.744;2022-10-04T08:25:17;0.00;;;0.00;;
48401;SDS011;34201;52.438;16.744;2022-10-04T08:38:58;0.00;;;0.00;;
48401;SDS011;34201;52.438;16.744;2022-10-04T08:41:30;0.00;;;0.00;;
48401;SDS011;34201;52.438;16.744;2022-10-04T08:44:26;0.00;;;0.00;;
48401;SDS011;34201;52.438;16.744;2022-10-04T08:55:29;0.00;;;0.00;;
48401;SDS011;34201;52.438;16.744;2022-10-04T09:01:37;0.00;;;0.00;;
48401;SDS011;34201;52.438;16.744;2022-10-04T09:11:26;0.00;;;0.00;;
48401;SDS011;34201;52.438;16.744;2022-10-04T09:13:52;0.00;;;0.00;;
48401;SDS011;34201;52.438;16.744;2022-10-04T09:16:45;0.00;;;0.00;;
48401;SDS011;34201;52.438;16.744;2022-10-04T09:19:28;0.00;;;0.00;;
48401;SDS011;34201;52.438;16.744;2022-10-04T09:30:16;0.00;;;0.00;;
48401;SDS011;34201;52.438;16.744;2022-10-04T09:38:30;0.00;;;0.00;;
48401;SDS011;34201;52.438;16.744;2022-10-04T09:41:04;0.00;;;0.00;;
48401;SDS011;34201;52.438;16.744;2022-10-04T09:46:37;0.00;;;0.00;;
48401;SDS011;34201;52.438;16.744;2022-10-04T10:05:47;0.00;;;0.00;;
48401;SDS011;34201;52.438;16.744;2022-10-04T10:11:28;0.00;;;0.00;;
48401;SDS011;34201;52.438;16.744;2022-10-04T10:14:44;0.00;;;0.00;;
48401;SDS011;34201;52.438;16.744;2022-10-04T10:17:40;0.00;;;0.00;;
48401;SDS011;34201;52.438;16.744;2022-10-04T10:22:59;0.00;;;0.00;;
48401;SDS011;34201;52.438;16.744;2022-10-04T10:34:10;0.00;;;0.00;;
48401;SDS011;34201;52.438;16.744;2022-10-04T10:42:41;0.00;;;0.00;;
48401;SDS011;34201;52.438;16.744;2022-10-04T10:47:53;0.00;;;0.00;;
48401;SDS011;34201;52.438;16.744;2022-10-04T11:19:59;0.00;;;0.00;;
48401;SDS011;34201;52.438;16.744;2022-10-04T11:28:39;0.00;;;0.00;;
48401;SDS011;34201;52.438;16.744;2022-10-04T11:31:26;0.00;;;0.00;;
48401;SDS011;34201;52.438;16.744;2022-10-04T11:37:03;0.00;;;0.00;;
48401;SDS011;34201;52.438;16.744;2022-10-04T11:40:01;0.00;;;0.00;;
48401;SDS011;34201;52.438;16.744;2022-10-04T11:42:55;0.00;;;0.00;;
48401;SDS011;34201;52.438;16.744;2022-10-04T11:50:47;0.00;;;0.00;;
48401;SDS011;34201;52.438;16.744;2022-10-04T11:58:44;0.00;;;0.00;;
48401;SDS011;34201;52.438;16.744;2022-10-04T12:20:27;0.00;;;0.00;;
48401;SDS011;34201;52.438;16.744;2022-10-04T12:25:46;0.00;;;0.00;;
48401;SDS011;34201;52.438;16.744;2022-10-04T12:28:24;0.00;;;0.00;;
48401;SDS011;34201;52.438;16.744;2022-10-04T12:33:53;0.00;;;0.00;;
48401;SDS011;34201;52.438;16.744;2022-10-04T12:39:20;0.00;;;0.00;;
48401;SDS011;34201;52.438;16.744;2022-10-04T12:52:41;0.00;;;0.00;;
48401;SDS011;34201;52.438;16.744;2022-10-04T12:58:44;0.00;;;0.00;;
48401;SDS011;34201;52.438;16.744;2022-10-04T13:01:29;0.00;;;0.00;;
48401;SDS011;34201;52.438;16.744;2022-10-04T13:04:04;0.00;;;0.00;;
48401;SDS011;34201;52.438;16.744;2022-10-04T13:06:47;0.00;;;0.00;;
48401;SDS011;34201;52.438;16.744;2022-10-04T13:11:56;0.00;;;0.00;;
48401;SDS011;34201;52.438;16.744;2022-10-04T13:28:28;0.00;;;0.00;;
48401;SDS011;34201;52.438;16.744;2022-10-04T13:31:27;0.00;;;0.00;;
48401;SDS011;34201;52.438;16.744;2022-10-04T13:34:19;0.00;;;0.00;;
48401;SDS011;34201;52.438;16.744;2022-10-04T13:37:02;0.00;;;0.00;;
48401;SDS011;34201;52.438;16.744;2022-10-04T13:39:45;0.00;;;0.00;;
48401;SDS011;34201;52.438;16.744;2022-10-04T13:47:39;0.00;;;0.00;;
48401;SDS011;34201;52.438;16.744;2022-10-04T13:52:45;0.00;;;0.00;;
48401;SDS011;34201;52.438;16.744;2022-10-04T13:55:53;0.00;;;0.00;;
48401;SDS011;34201;52.438;16.744;2022-10-04T14:01:38;0.00;;;0.00;;
48401;SDS011;34201;52.438;16.744;2022-10-04T14:09:46;0.00;;;0.00;;
48401;SDS011;34201;52.438;16.744;2022-10-04T14:12:38;0.00;;;0.00;;
48401;SDS011;34201;52.438;16.744;2022-10-04T14:26:44;0.00;;;0.00;;
48401;SDS011;34201;52.438;16.744;2022-10-04T14:40:56;0.00;;;0.00;;
48401;SDS011;34201;52.438;16.744;2022-10-04T14:44:04;0.00;;;0.00;;
48401;SDS011;34201;52.438;16.744;2022-10-04T14:47:13;0.00;;;0.00;;
48401;SDS011;34201;52.438;16.744;2022-10-04T14:50:19;0.00;;;0.00;;
48401;SDS011;34201;52.438;16.744;2022-10-04T14:58:48;0.00;;;0.00;;
48401;SDS011;34201;52.438;16.744;2022-10-04T15:01:20;0.00;;;0.00;;
48401;SDS011;34201;52.438;16.744;2022-10-04T15:07:27;0.00;;;0.00;;
48401;SDS011;34201;52.438;16.744;2022-10-04T15:09:49;0.00;;;0.00;;
48401;SDS011;34201;52.438;16.744;2022-10-04T15:17:39;0.00;;;0.00;;
48401;SDS011;34201;52.438;16.744;2022-10-04T15:20:27;0.00;;;0.00;;
48401;SDS011;34201;52.438;16.744;2022-10-04T15:23:14;0.00;;;0.00;;
48401;SDS011;34201;52.438;16.744;2022-10-04T15:25:55;0.00;;;0.00;;
48401;SDS011;34201;52.438;16.744;2022-10-04T15:31:21;0.00;;;0.00;;
48401;SDS011;34201;52.438;16.744;2022-10-04T15:37:20;0.08;;;0.00;;
48401;SDS011;34201;52.438;16.744;2022-10-04T15:42:36;0.00;;;0.00;;
48401;SDS011;34201;52.438;16.744;2022-10-04T15:45:06;0.00;;;0.00;;
48401;SDS011;34201;52.438;16.744;2022-10-04T15:48:33;0.00;;;0.00;;
48401;SDS011;34201;52.438;16.744;2022-10-04T15:54:09;0.00;;;0.00;;
48401;SDS011;34201;52.438;16.744;2022-10-04T15:56:57;0.00;;;0.00;;
48401;SDS011;34201;52.438;16.744;2022-10-04T15:59:31;0.00;;;0.00;;
48401;SDS011;34201;52.438;16.744;2022-10-04T16:05:14;0.00;;;0.00;;
48401;SDS011;34201;52.438;16.744;2022-10-04T16:10:27;0.00;;;0.00;;
48401;SDS011;34201;52.438;16.744;2022-10-04T16:13:20;0.00;;;0.00;;
48401;SDS011;34201;52.438;16.744;2022-10-04T16:16:45;0.00;;;0.00;;
48401;SDS011;34201;52.438;16.744;2022-10-04T16:18:52;0.00;;;0.00;;
48401;SDS011;34201;52.438;16.744;2022-10-04T16:22:06;0.00;;;0.00;;
48401;SDS011;34201;52.438;16.744;2022-10-04T16:32:16;0.00;;;0.00;;
48401;SDS011;34201;52.438;16.744;2022-10-04T16:34:59;0.00;;;0.00;;
48401;SDS011;34201;52.438;16.744;2022-10-04T16:43:04;0.00;;;0.00;;
48401;SDS011;34201;52.438;16.744;2022-10-04T16:45:37;0.00;;;0.00;;
48401;SDS011;34201;52.438;16.744;2022-10-04T17:08:01;0.00;;;0.00;;
48401;SDS011;34201;52.438;16.744;2022-10-04T17:13:54;0.00;;;0.00;;
48401;SDS011;34201;52.438;16.744;2022-10-04T17:16:48;0.00;;;0.00;;
48401;SDS011;34201;52.438;16.744;2022-10-04T17:19:34;0.00;;;0.00;;
48401;SDS011;34201;52.438;16.744;2022-10-04T17:22:21;0.00;;;0.00;;
48401;SDS011;34201;52.438;16.744;2022-10-04T17:27:45;0.00;;;0.00;;
48401;SDS011;34201;52.438;16.744;2022-10-04T17:38:34;0.00;;;0.00;;
48401;SDS011;34201;52.438;16.744;2022-10-04T17:52:19;0.00;;;0.00;;
48401;SDS011;34201;52.438;16.744;2022-10-04T17:55:19;0.00;;;0.00;;
48401;SDS011;34201;52.438;16.744;2022-10-04T17:58:09;0.00;;;0.00;;
48401;SDS011;34201;52.438;16.744;2022-10-04T18:00:48;0.00;;;0.00;;
48401;SDS011;34201;52.438;16.744;2022-10-04T18:03:18;0.00;;;0.00;;
48401;SDS011;34201;52.438;16.744;2022-10-04T18:05:56;0.00;;;0.00;;
48401;SDS011;34201;52.438;16.744;2022-10-04T18:11:05;0.00;;;0.00;;
48401;SDS011;34201;52.438;16.744;2022-10-04T18:16:13;0.00;;;0.00;;
48401;SDS011;34201;52.438;16.744;2022-10-04T18:18:46;0.00;;;0.00;;
48401;SDS011;34201;52.438;16.744;2022-10-04T18:21:28;0.00;;;0.00;;
48401;SDS011;34201;52.438;16.744;2022-10-04T18:27:01;0.00;;;0.00;;
48401;SDS011;34201;52.438;16.744;2022-10-04T18:29:40;0.10;;;0.10;;
48401;SDS011;34201;52.438;16.744;2022-10-04T18:32:29;0.00;;;0.00;;
48401;SDS011;34201;52.438;16.744;2022-10-04T18:35:20;0.00;;;0.00;;
48401;SDS011;34201;52.438;16.744;2022-10-04T18:37:52;0.00;;;0.00;;
48401;SDS011;34201;52.438;16.744;2022-10-04T18:40:27;0.00;;;0.00;;
48401;SDS011;34201;52.438;16.744;2022-10-04T18:42:58;0.00;;;0.00;;
48401;SDS011;34201;52.438;16.744;2022-10-04T18:45:29;0.00;;;0.00;;
48401;SDS011;34201;52.438;16.744;2022-10-04T18:47:58;0.00;;;0.00;;
48401;SDS011;34201;52.438;16.744;2022-10-04T18:50:35;0.00;;;0.00;;
48401;SDS011;34201;52.438;16.744;2022-10-04T18:56:09;0.00;;;0.00;;
48401;SDS011;34201;52.438;16.744;2022-10-04T18:58:43;0.00;;;0.00;;
48401;SDS011;34201;52.438;16.744;2022-10-04T19:01:56;0.00;;;0.00;;
48401;SDS011;34201;52.438;16.744;2022-10-04T19:07:08;0.20;;;0.00;;
48401;SDS011;34201;52.438;16.744;2022-10-04T19:12:10;0.00;;;0.00;;
48401;SDS011;34201;52.438;16.744;2022-10-04T19:14:48;0.00;;;0.00;;
48401;SDS011;34201;52.438;16.744;2022-10-04T19:17:28;0.00;;;0.00;;
48401;SDS011;34201;52.438;16.744;2022-10-04T19:23:03;0.00;;;0.00;;
48401;SDS011;34201;52.438;16.744;2022-10-04T19:25:39;0.10;;;0.10;;
48401;SDS011;34201;52.438;16.744;2022-10-04T19:28:19;0.00;;;0.00;;
48401;SDS011;34201;52.438;16.744;2022-10-04T19:33:54;0.00;;;0.00;;
48401;SDS011;34201;52.438;16.744;2022-10-04T19:36:42;0.00;;;0.00;;
48401;SDS011;34201;52.438;16.744;2022-10-04T19:47:57;0.00;;;0.00;;
48401;SDS011;34201;52.438;16.744;2022-10-04T19:50:34;0.00;;;0.00;;
48401;SDS011;34201;52.438;16.744;2022-10-04T19:53:20;0.05;;;0.05;;
48401;SDS011;34201;52.438;16.744;2022-10-04T19:55:56;0.10;;;0.10;;
48401;SDS011;34201;52.438;16.744;2022-10-04T19:58:25;0.10;;;0.10;;
48401;SDS011;34201;52.438;16.744;2022-10-04T20:01:14;0.10;;;0.10;;
48401;SDS011;34201;52.438;16.744;2022-10-04T20:03:50;0.10;;;0.10;;
48401;SDS011;34201;52.438;16.744;2022-10-04T20:06:36;0.10;;;0.10;;
48401;SDS011;34201;52.438;16.744;2022-10-04T20:09:21;0.05;;;0.05;;
48401;SDS011;34201;52.438;16.744;2022-10-04T20:11:48;0.10;;;0.10;;
48401;SDS011;34201;52.438;16.744;2022-10-04T20:21:46;0.10;;;0.10;;
48401;SDS011;34201;52.438;16.744;2022-10-04T20:27:00;0.10;;;0.10;;
48401;SDS011;34201;52.438;16.744;2022-10-04T20:32:02;0.10;;;0.10;;
48401;SDS011;34201;52.438;16.744;2022-10-04T20:37:03;0.10;;;0.10;;
48401;SDS011;34201;52.438;16.744;2022-10-04T20:44:56;0.10;;;0.10;;
48401;SDS011;34201;52.438;16.744;2022-10-04T20:47:34;0.10;;;0.10;;
48401;SDS011;34201;52.438;16.744;2022-10-04T20:50:01;0.10;;;0.10;;
48401;SDS011;34201;52.438;16.744;2022-10-04T20:52:31;0.08;;;0.08;;
48401;SDS011;34201;52.438;16.744;2022-10-04T20:54:59;0.10;;;0.10;;
48401;SDS011;34201;52.438;16.744;2022-10-04T20:57:30;0.10;;;0.10;;
48401;SDS011;34201;52.438;16.744;2022-10-04T20:59:55;0.10;;;0.10;;
48401;SDS011;34201;52.438;16.744;2022-10-04T21:02:23;0.10;;;0.10;;
48401;SDS011;34201;52.438;16.744;2022-10-04T21:04:51;0.13;;;0.13;;
48401;SDS011;34201;52.438;16.744;2022-10-04T21:07:21;0.10;;;0.10;;
48401;SDS011;34201;52.438;16.744;2022-10-04T21:09:48;0.20;;;0.20;;
48401;SDS011;34201;52.438;16.744;2022-10-04T21:19:52;0.10;;;0.10;;
48401;SDS011;34201;52.438;16.744;2022-10-04T21:29:53;0.15;;;0.15;;
48401;SDS011;34201;52.438;16.744;2022-10-04T21:32:19;0.10;;;0.10;;
48401;SDS011;34201;52.438;16.744;2022-10-04T21:34:45;0.10;;;0.10;;
48401;SDS011;34201;52.438;16.744;2022-10-04T21:37:11;0.10;;;0.10;;
48401;SDS011;34201;52.438;16.744;2022-10-04T21:39:36;0.10;;;0.10;;
48401;SDS011;34201;52.438;16.744;2022-10-04T21:42:01;0.10;;;0.10;;
48401;SDS011;34201;52.438;16.744;2022-10-04T21:44:28;0.10;;;0.10;;
48401;SDS011;34201;52.438;16.744;2022-10-04T21:46:53;0.10;;;0.10;;
48401;SDS011;34201;52.438;16.744;2022-10-04T21:49:18;0.13;;;0.13;;
48401;SDS011;34201;52.438;16.744;2022-10-04T21:51:43;0.10;;;0.10;;
48401;SDS011;34201;52.438;16.744;2022-10-04T21:54:09;0.20;;;0.20;;
48401;SDS011;34201;52.438;16.744;2022-10-04T21:56:34;0.10;;;0.10;;
48401;SDS011;34201;52.438;16.744;2022-10-04T21:58:59;0.10;;;0.10;;
48401;SDS011;34201;52.438;16.744;2022-10-04T22:01:25;0.10;;;0.10;;
48401;SDS011;34201;52.438;16.744;2022-10-04T22:03:50;0.10;;;0.10;;
48401;SDS011;34201;52.438;16.744;2022-10-04T22:06:16;0.10;;;0.10;;
48401;SDS011;34201;52.438;16.744;2022-10-04T22:08:42;0.10;;;0.10;;
48401;SDS011;34201;52.438;16.744;2022-10-04T22:11:07;0.10;;;0.10;;
48401;SDS011;34201;52.438;16.744;2022-10-04T22:13:33;0.10;;;0.10;;
48401;SDS011;34201;52.438;16.744;2022-10-04T22:15:59;0.10;;;0.10;;
48401;SDS011;34201;52.438;16.744;2022-10-04T22:18:26;0.10;;;0.10;;
48401;SDS011;34201;52.438;16.744;2022-10-04T22:20:52;0.10;;;0.10;;
48401;SDS011;34201;52.438;16.744;2022-10-04T22:23:18;0.10;;;0.10;;
48401;SDS011;34201;52.438;16.744;2022-10-04T22:25:45;0.10;;;0.10;;
48401;SDS011;34201;52.438;16.744;2022-10-04T22:28:16;0.10;;;0.10;;
48401;SDS011;34201;52.438;16.744;2022-10-04T22:30:45;0.10;;;0.10;;
48401;SDS011;34201;52.438;16.744;2022-10-04T22:36:03;0.15;;;0.15;;
48401;SDS011;34201;52.438;16.744;2022-10-04T22:38:36;0.20;;;0.20;;
48401;SDS011;34201;52.438;16.744;2022-10-04T22:41:04;0.10;;;0.10;;
48401;SDS011;34201;52.438;16.744;2022-10-04T22:43:33;0.20;;;0.20;;
48401;SDS011;34201;52.438;16.744;2022-10-04T22:45:59;0.13;;;0.13;;
48401;SDS011;34201;52.438;16.744;2022-10-04T22:48:24;0.10;;;0.10;;
48401;SDS011;34201;52.438;16.744;2022-10-04T22:50:52;0.25;;;0.25;;
48401;SDS011;34201;52.438;16.744;2022-10-04T22:53:19;0.20;;;0.20;;
48401;SDS011;34201;52.438;16.744;2022-10-04T22:55:46;0.10;;;0.10;;
48401;SDS011;34201;52.438;16.744;2022-10-04T22:58:13;0.10;;;0.10;;
48401;SDS011;34201;52.438;16.744;2022-10-04T23:00:39;0.10;;;0.10;;
48401;SDS011;34201;52.438;16.744;2022-10-04T23:05:50;0.13;;;0.13;;
48401;SDS011;34201;52.438;16.744;2022-10-04T23:08:15;0.10;;;0.10;;
48401;SDS011;34201;52.438;16.744;2022-10-04T23:10:42;0.10;;;0.10;;
48401;SDS011;34201;52.438;16.744;2022-10-04T23:13:08;0.20;;;0.20;;
48401;SDS011;34201;52.438;16.744;2022-10-04T23:15:33;0.13;;;0.13;;
48401;SDS011;34201;52.438;16.744;2022-10-04T23:17:58;0.10;;;0.10;;
48401;SDS011;34201;52.438;16.744;2022-10-04T23:20:24;0.10;;;0.10;;
48401;SDS011;34201;52.438;16.744;2022-10-04T23:22:52;0.20;;;0.20;;
48401;SDS011;34201;52.438;16.744;2022-10-04T23:25:19;0.10;;;0.10;;
48401;SDS011;34201;52.438;16.744;2022-10-04T23:27:51;0.20;;;0.20;;
48401;SDS011;34201;52.438;16.744;2022-10-04T23:30:19;0.20;;;0.20;;
48401;SDS011;34201;52.438;16.744;2022-10-04T23:32:46;0.20;;;0.20;;
48401;SDS011;34201;52.438;16.744;2022-10-04T23:35:15;0.20;;;0.20;;
48401;SDS011;34201;52.438;16.744;2022-10-04T23:37:42;0.10;;;0.10;;
48401;SDS011;34201;52.438;16.744;2022-10-04T23:40:08;0.10;;;0.10;;
48401;SDS011;34201;52.438;16.744;2022-10-04T23:42:35;0.10;;;0.10;;
48401;SDS011;34201;52.438;16.744;2022-10-04T23:45:00;0.10;;;0.10;;
48401;SDS011;34201;52.438;16.744;2022-10-04T23:47:34;0.10;;;0.10;;
48401;SDS011;34201;52.438;16.744;2022-10-04T23:50:01;0.15;;;0.15;;
48401;SDS011;34201;52.438;16.744;2022-10-04T23:52:41;0.10;;;0.10;;
48401;SDS011;34201;52.438;16.744;2022-10-04T23:55:13;0.20;;;0.20;;
48401;SDS011;34201;52.438;16.744;2022-10-04T23:57:41;0.10;;;0.10;;
